sensor_id;sensor_type;location;lat;lon;timestamp;P1;durP1;ratioP1;P2;durP2;ratioP2
27424;SDS011;15244;49.088;11.886;2023-11-19T00:02:24;1.20;;;1.20;;
27424;SDS011;15244;49.088;11.886;2023-11-19T00:07:26;1.40;;;1.30;;
27424;SDS011;15244;49.088;11.886;2023-11-19T00:12:40;1.02;;;1.02;;
27424;SDS011;15244;49.088;11.886;2023-11-19T00:17:44;1.10;;;1.10;;
27424;SDS011;15244;49.088;11.886;2023-11-19T00:22:48;1.48;;;1.38;;
27424;SDS011;15244;49.088;11.886;2023-11-19T00:27:53;1.02;;;1.02;;
27424;SDS011;15244;49.088;11.886;2023-11-19T00:32:55;0.80;;;0.80;;
27424;SDS011;15244;49.088;11.886;2023-11-19T00:37:57;0.60;;;0.60;;
27424;SDS011;15244;49.088;11.886;2023-11-19T00:43:00;0.70;;;0.70;;
27424;SDS011;15244;49.088;11.886;2023-11-19T00:48:02;1.00;;;1.00;;
27424;SDS011;15244;49.088;11.886;2023-11-19T00:53:03;0.77;;;0.77;;
27424;SDS011;15244;49.088;11.886;2023-11-19T00:58:05;0.60;;;0.60;;
27424;SDS011;15244;49.088;11.886;2023-11-19T01:03:07;0.90;;;0.90;;
27424;SDS011;15244;49.088;11.886;2023-11-19T01:08:09;1.38;;;1.30;;
27424;SDS011;15244;49.088;11.886;2023-11-19T01:13:10;1.25;;;1.15;;
27424;SDS011;15244;49.088;11.886;2023-11-19T01:18:12;0.85;;;0.85;;
27424;SDS011;15244;49.088;11.886;2023-11-19T01:23:14;1.30;;;1.20;;
27424;SDS011;15244;49.088;11.886;2023-11-19T01:28:16;0.70;;;0.70;;
27424;SDS011;15244;49.088;11.886;2023-11-19T01:33:20;0.60;;;0.60;;
27424;SDS011;15244;49.088;11.886;2023-11-19T01:38:22;1.02;;;0.98;;
27424;SDS011;15244;49.088;11.886;2023-11-19T01:43:37;0.63;;;0.63;;
27424;SDS011;15244;49.088;11.886;2023-11-19T01:48:43;1.30;;;1.10;;
27424;SDS011;15244;49.088;11.886;2023-11-19T01:53:47;1.23;;;1.20;;
27424;SDS011;15244;49.088;11.886;2023-11-19T01:58:50;1.20;;;0.90;;
27424;SDS011;15244;49.088;11.886;2023-11-19T02:03:52;1.08;;;1.00;;
27424;SDS011;15244;49.088;11.886;2023-11-19T02:08:54;0.82;;;0.82;;
27424;SDS011;15244;49.088;11.886;2023-11-19T02:13:58;0.90;;;0.73;;
27424;SDS011;15244;49.088;11.886;2023-11-19T02:18:59;0.40;;;0.40;;
27424;SDS011;15244;49.088;11.886;2023-11-19T02:24:03;0.60;;;0.60;;
27424;SDS011;15244;49.088;11.886;2023-11-19T02:29:10;0.50;;;0.50;;
27424;SDS011;15244;49.088;11.886;2023-11-19T02:34:14;0.80;;;0.80;;
27424;SDS011;15244;49.088;11.886;2023-11-19T02:39:18;0.47;;;0.47;;
27424;SDS011;15244;49.088;11.886;2023-11-19T02:44:23;0.43;;;0.43;;
27424;SDS011;15244;49.088;11.886;2023-11-19T02:49:24;0.50;;;0.50;;
27424;SDS011;15244;49.088;11.886;2023-11-19T02:54:26;0.47;;;0.47;;
27424;SDS011;15244;49.088;11.886;2023-11-19T02:59:28;0.50;;;0.50;;
27424;SDS011;15244;49.088;11.886;2023-11-19T03:04:40;0.40;;;0.40;;
27424;SDS011;15244;49.088;11.886;2023-11-19T03:09:41;0.50;;;0.50;;
27424;SDS011;15244;49.088;11.886;2023-11-19T03:14:45;1.45;;;0.35;;
27424;SDS011;15244;49.088;11.886;2023-11-19T03:19:49;0.43;;;0.43;;
27424;SDS011;15244;49.088;11.886;2023-11-19T03:24:50;0.40;;;0.40;;
27424;SDS011;15244;49.088;11.886;2023-11-19T03:29:52;0.50;;;0.50;;
27424;SDS011;15244;49.088;11.886;2023-11-19T03:34:54;0.43;;;0.43;;
27424;SDS011;15244;49.088;11.886;2023-11-19T03:39:57;0.40;;;0.40;;
27424;SDS011;15244;49.088;11.886;2023-11-19T03:45:03;0.30;;;0.30;;
27424;SDS011;15244;49.088;11.886;2023-11-19T03:50:05;0.30;;;0.30;;
27424;SDS011;15244;49.088;11.886;2023-11-19T03:55:09;0.30;;;0.30;;
27424;SDS011;15244;49.088;11.886;2023-11-19T04:00:10;0.30;;;0.30;;
27424;SDS011;15244;49.088;11.886;2023-11-19T04:05:15;0.30;;;0.30;;
27424;SDS011;15244;49.088;11.886;2023-11-19T04:10:16;0.40;;;0.40;;
27424;SDS011;15244;49.088;11.886;2023-11-19T04:15:18;0.63;;;0.40;;
27424;SDS011;15244;49.088;11.886;2023-11-19T04:20:20;0.40;;;0.40;;
27424;SDS011;15244;49.088;11.886;2023-11-19T04:25:22;0.32;;;0.32;;
27424;SDS011;15244;49.088;11.886;2023-11-19T04:30:24;0.30;;;0.30;;
27424;SDS011;15244;49.088;11.886;2023-11-19T04:35:28;0.28;;;0.28;;
27424;SDS011;15244;49.088;11.886;2023-11-19T04:40:30;0.22;;;0.22;;
27424;SDS011;15244;49.088;11.886;2023-11-19T04:45:32;0.20;;;0.20;;
27424;SDS011;15244;49.088;11.886;2023-11-19T04:50:33;0.30;;;0.30;;
27424;SDS011;15244;49.088;11.886;2023-11-19T04:55:37;0.40;;;0.40;;
27424;SDS011;15244;49.088;11.886;2023-11-19T05:00:39;1.25;;;0.45;;
27424;SDS011;15244;49.088;11.886;2023-11-19T05:05:40;0.50;;;0.50;;
27424;SDS011;15244;49.088;11.886;2023-11-19T05:10:42;0.40;;;0.40;;
27424;SDS011;15244;49.088;11.886;2023-11-19T05:15:44;0.60;;;0.60;;
27424;SDS011;15244;49.088;11.886;2023-11-19T05:20:45;1.33;;;0.80;;
27424;SDS011;15244;49.088;11.886;2023-11-19T05:25:47;0.80;;;0.80;;
27424;SDS011;15244;49.088;11.886;2023-11-19T05:30:49;0.88;;;0.88;;
27424;SDS011;15244;49.088;11.886;2023-11-19T05:35:53;1.10;;;1.10;;
27424;SDS011;15244;49.088;11.886;2023-11-19T05:40:54;1.10;;;1.10;;
27424;SDS011;15244;49.088;11.886;2023-11-19T05:45:56;1.02;;;1.02;;
27424;SDS011;15244;49.088;11.886;2023-11-19T05:50:58;1.20;;;1.20;;
27424;SDS011;15244;49.088;11.886;2023-11-19T05:55:59;1.50;;;1.40;;
27424;SDS011;15244;49.088;11.886;2023-11-19T06:01:05;1.40;;;1.40;;
27424;SDS011;15244;49.088;11.886;2023-11-19T06:06:09;1.63;;;1.52;;
27424;SDS011;15244;49.088;11.886;2023-11-19T06:11:11;1.73;;;1.63;;
27424;SDS011;15244;49.088;11.886;2023-11-19T06:16:20;1.80;;;1.70;;
27424;SDS011;15244;49.088;11.886;2023-11-19T06:21:22;2.00;;;1.90;;
27424;SDS011;15244;49.088;11.886;2023-11-19T06:26:24;2.60;;;2.40;;
27424;SDS011;15244;49.088;11.886;2023-11-19T06:31:25;4.03;;;3.42;;
27424;SDS011;15244;49.088;11.886;2023-11-19T06:36:27;4.25;;;3.95;;
27424;SDS011;15244;49.088;11.886;2023-11-19T06:41:29;8.30;;;6.85;;
27424;SDS011;15244;49.088;11.886;2023-11-19T06:46:30;5.72;;;5.22;;
27424;SDS011;15244;49.088;11.886;2023-11-19T06:51:33;5.57;;;5.07;;
27424;SDS011;15244;49.088;11.886;2023-11-19T06:56:35;4.93;;;4.65;;
27424;SDS011;15244;49.088;11.886;2023-11-19T07:01:36;4.65;;;4.35;;
27424;SDS011;15244;49.088;11.886;2023-11-19T07:06:38;5.50;;;5.10;;
27424;SDS011;15244;49.088;11.886;2023-11-19T07:11:43;6.00;;;5.20;;
27424;SDS011;15244;49.088;11.886;2023-11-19T07:16:48;4.68;;;4.00;;
27424;SDS011;15244;49.088;11.886;2023-11-19T07:21:51;5.32;;;4.95;;
27424;SDS011;15244;49.088;11.886;2023-11-19T07:26:58;4.07;;;3.78;;
27424;SDS011;15244;49.088;11.886;2023-11-19T07:32:04;3.75;;;3.55;;
27424;SDS011;15244;49.088;11.886;2023-11-19T07:37:06;2.80;;;2.70;;
27424;SDS011;15244;49.088;11.886;2023-11-19T07:42:08;4.97;;;4.68;;
27424;SDS011;15244;49.088;11.886;2023-11-19T07:47:11;2.75;;;2.65;;
27424;SDS011;15244;49.088;11.886;2023-11-19T07:52:14;2.97;;;2.88;;
27424;SDS011;15244;49.088;11.886;2023-11-19T07:57:18;2.60;;;2.47;;
27424;SDS011;15244;49.088;11.886;2023-11-19T08:02:20;3.30;;;3.10;;
27424;SDS011;15244;49.088;11.886;2023-11-19T08:07:21;2.90;;;2.80;;
27424;SDS011;15244;49.088;11.886;2023-11-19T08:12:26;3.17;;;2.97;;
27424;SDS011;15244;49.088;11.886;2023-11-19T08:17:27;4.80;;;4.50;;
27424;SDS011;15244;49.088;11.886;2023-11-19T08:22:29;4.13;;;3.92;;
27424;SDS011;15244;49.088;11.886;2023-11-19T08:27:31;3.45;;;3.25;;
27424;SDS011;15244;49.088;11.886;2023-11-19T08:32:32;3.35;;;3.15;;
27424;SDS011;15244;49.088;11.886;2023-11-19T08:37:35;3.83;;;3.63;;
27424;SDS011;15244;49.088;11.886;2023-11-19T08:42:38;4.38;;;4.07;;
27424;SDS011;15244;49.088;11.886;2023-11-19T08:47:40;4.57;;;4.28;;
27424;SDS011;15244;49.088;11.886;2023-11-19T08:52:42;3.70;;;3.50;;
27424;SDS011;15244;49.088;11.886;2023-11-19T08:57:44;4.55;;;4.25;;
27424;SDS011;15244;49.088;11.886;2023-11-19T09:02:47;3.55;;;3.35;;
27424;SDS011;15244;49.088;11.886;2023-11-19T09:07:49;4.03;;;3.78;;
27424;SDS011;15244;49.088;11.886;2023-11-19T09:12:53;4.88;;;4.57;;
27424;SDS011;15244;49.088;11.886;2023-11-19T09:17:59;2.38;;;2.28;;
27424;SDS011;15244;49.088;11.886;2023-11-19T09:23:00;1.10;;;1.00;;
27424;SDS011;15244;49.088;11.886;2023-11-19T09:28:02;1.23;;;1.05;;
27424;SDS011;15244;49.088;11.886;2023-11-19T09:33:04;1.17;;;1.08;;
27424;SDS011;15244;49.088;11.886;2023-11-19T09:38:09;1.80;;;1.00;;
27424;SDS011;15244;49.088;11.886;2023-11-19T09:43:10;1.27;;;1.17;;
27424;SDS011;15244;49.088;11.886;2023-11-19T09:48:12;1.35;;;1.25;;
27424;SDS011;15244;49.088;11.886;2023-11-19T09:53:14;2.67;;;1.05;;
27424;SDS011;15244;49.088;11.886;2023-11-19T09:58:16;1.38;;;1.00;;
27424;SDS011;15244;49.088;11.886;2023-11-19T10:03:18;1.40;;;1.30;;
27424;SDS011;15244;49.088;11.886;2023-11-19T10:08:20;1.80;;;1.70;;
27424;SDS011;15244;49.088;11.886;2023-11-19T10:13:28;1.10;;;1.10;;
27424;SDS011;15244;49.088;11.886;2023-11-19T10:18:32;2.30;;;1.55;;
27424;SDS011;15244;49.088;11.886;2023-11-19T10:23:48;1.08;;;0.98;;
27424;SDS011;15244;49.088;11.886;2023-11-19T10:28:54;1.00;;;0.95;;
27424;SDS011;15244;49.088;11.886;2023-11-19T10:33:56;1.67;;;1.13;;
27424;SDS011;15244;49.088;11.886;2023-11-19T10:38:58;3.45;;;2.25;;
27424;SDS011;15244;49.088;11.886;2023-11-19T10:44:00;2.65;;;0.98;;
27424;SDS011;15244;49.088;11.886;2023-11-19T10:49:02;1.63;;;1.52;;
27424;SDS011;15244;49.088;11.886;2023-11-19T10:54:04;1.13;;;1.02;;
27424;SDS011;15244;49.088;11.886;2023-11-19T10:59:07;1.00;;;1.00;;
27424;SDS011;15244;49.088;11.886;2023-11-19T11:04:14;0.60;;;0.60;;
27424;SDS011;15244;49.088;11.886;2023-11-19T11:09:25;0.43;;;0.43;;
27424;SDS011;15244;49.088;11.886;2023-11-19T11:14:28;0.52;;;0.52;;
27424;SDS011;15244;49.088;11.886;2023-11-19T11:19:30;1.17;;;0.40;;
27424;SDS011;15244;49.088;11.886;2023-11-19T11:24:36;1.52;;;0.82;;
27424;SDS011;15244;49.088;11.886;2023-11-19T11:35:12;0.60;;;0.60;;
27424;SDS011;15244;49.088;11.886;2023-11-19T11:40:17;0.85;;;0.63;;
27424;SDS011;15244;49.088;11.886;2023-11-19T11:45:46;0.70;;;0.70;;
27424;SDS011;15244;49.088;11.886;2023-11-19T11:50:47;0.52;;;0.52;;
27424;SDS011;15244;49.088;11.886;2023-11-19T11:55:52;2.33;;;1.00;;
27424;SDS011;15244;49.088;11.886;2023-11-19T12:00:57;0.98;;;0.98;;
27424;SDS011;15244;49.088;11.886;2023-11-19T12:06:01;1.75;;;0.88;;
27424;SDS011;15244;49.088;11.886;2023-11-19T12:11:03;0.57;;;0.57;;
27424;SDS011;15244;49.088;11.886;2023-11-19T12:21:06;2.88;;;0.80;;
27424;SDS011;15244;49.088;11.886;2023-11-19T12:26:20;0.75;;;0.50;;
27424;SDS011;15244;49.088;11.886;2023-11-19T12:31:32;1.33;;;0.70;;
27424;SDS011;15244;49.088;11.886;2023-11-19T12:36:37;1.48;;;0.47;;
27424;SDS011;15244;49.088;11.886;2023-11-19T12:41:48;0.70;;;0.68;;
27424;SDS011;15244;49.088;11.886;2023-11-19T12:47:13;1.38;;;1.02;;
27424;SDS011;15244;49.088;11.886;2023-11-19T12:52:14;0.35;;;0.30;;
27424;SDS011;15244;49.088;11.886;2023-11-19T12:57:16;1.27;;;0.40;;
27424;SDS011;15244;49.088;11.886;2023-11-19T13:02:20;1.75;;;0.30;;
27424;SDS011;15244;49.088;11.886;2023-11-19T13:07:21;0.85;;;0.35;;
27424;SDS011;15244;49.088;11.886;2023-11-19T13:12:23;0.68;;;0.45;;
27424;SDS011;15244;49.088;11.886;2023-11-19T13:17:24;0.57;;;0.40;;
27424;SDS011;15244;49.088;11.886;2023-11-19T13:22:27;1.08;;;0.50;;
27424;SDS011;15244;49.088;11.886;2023-11-19T13:27:28;0.68;;;0.52;;
27424;SDS011;15244;49.088;11.886;2023-11-19T13:32:30;3.17;;;1.00;;
27424;SDS011;15244;49.088;11.886;2023-11-19T13:37:31;2.58;;;0.57;;
27424;SDS011;15244;49.088;11.886;2023-11-19T13:42:33;2.53;;;0.80;;
27424;SDS011;15244;49.088;11.886;2023-11-19T13:47:35;0.65;;;0.50;;
27424;SDS011;15244;49.088;11.886;2023-11-19T13:52:37;0.70;;;0.45;;
27424;SDS011;15244;49.088;11.886;2023-11-19T13:57:40;2.10;;;0.60;;
27424;SDS011;15244;49.088;11.886;2023-11-19T14:02:46;1.35;;;0.50;;
27424;SDS011;15244;49.088;11.886;2023-11-19T14:07:51;1.15;;;0.60;;
27424;SDS011;15244;49.088;11.886;2023-11-19T14:12:53;0.98;;;0.52;;
27424;SDS011;15244;49.088;11.886;2023-11-19T14:17:54;0.70;;;0.40;;
27424;SDS011;15244;49.088;11.886;2023-11-19T14:22:56;0.40;;;0.40;;
27424;SDS011;15244;49.088;11.886;2023-11-19T14:27:58;1.23;;;1.00;;
27424;SDS011;15244;49.088;11.886;2023-11-19T14:33:00;3.28;;;2.97;;
27424;SDS011;15244;49.088;11.886;2023-11-19T14:38:03;1.13;;;0.80;;
27424;SDS011;15244;49.088;11.886;2023-11-19T14:43:08;0.50;;;0.50;;
27424;SDS011;15244;49.088;11.886;2023-11-19T14:48:13;5.32;;;0.50;;
27424;SDS011;15244;49.088;11.886;2023-11-19T14:53:15;0.70;;;0.52;;
27424;SDS011;15244;49.088;11.886;2023-11-19T14:58:17;3.58;;;0.57;;
27424;SDS011;15244;49.088;11.886;2023-11-19T15:03:21;3.70;;;1.13;;
27424;SDS011;15244;49.088;11.886;2023-11-19T15:08:26;0.95;;;0.70;;
27424;SDS011;15244;49.088;11.886;2023-11-19T15:13:27;1.40;;;0.60;;
27424;SDS011;15244;49.088;11.886;2023-11-19T15:18:29;2.15;;;0.60;;
27424;SDS011;15244;49.088;11.886;2023-11-19T15:23:34;0.85;;;0.45;;
27424;SDS011;15244;49.088;11.886;2023-11-19T15:28:36;0.63;;;0.40;;
27424;SDS011;15244;49.088;11.886;2023-11-19T15:33:38;3.47;;;0.60;;
27424;SDS011;15244;49.088;11.886;2023-11-19T15:38:40;1.75;;;0.70;;
27424;SDS011;15244;49.088;11.886;2023-11-19T15:43:44;0.77;;;0.32;;
27424;SDS011;15244;49.088;11.886;2023-11-19T15:48:47;2.00;;;0.65;;
27424;SDS011;15244;49.088;11.886;2023-11-19T15:53:48;0.60;;;0.55;;
27424;SDS011;15244;49.088;11.886;2023-11-19T15:58:50;1.67;;;0.40;;
27424;SDS011;15244;49.088;11.886;2023-11-19T16:03:51;1.27;;;0.35;;
27424;SDS011;15244;49.088;11.886;2023-11-19T16:08:56;2.13;;;0.60;;
27424;SDS011;15244;49.088;11.886;2023-11-19T16:13:57;1.75;;;0.60;;
27424;SDS011;15244;49.088;11.886;2023-11-19T16:18:59;1.50;;;0.70;;
27424;SDS011;15244;49.088;11.886;2023-11-19T16:24:01;0.85;;;0.43;;
27424;SDS011;15244;49.088;11.886;2023-11-19T16:29:04;0.70;;;0.45;;
27424;SDS011;15244;49.088;11.886;2023-11-19T16:34:08;1.15;;;0.60;;
27424;SDS011;15244;49.088;11.886;2023-11-19T16:39:11;0.82;;;0.52;;
27424;SDS011;15244;49.088;11.886;2023-11-19T16:44:17;1.40;;;0.30;;
27424;SDS011;15244;49.088;11.886;2023-11-19T16:49:19;0.73;;;0.40;;
27424;SDS011;15244;49.088;11.886;2023-11-19T16:54:20;1.95;;;0.80;;
27424;SDS011;15244;49.088;11.886;2023-11-19T16:59:23;2.00;;;0.80;;
27424;SDS011;15244;49.088;11.886;2023-11-19T17:04:24;2.40;;;0.75;;
27424;SDS011;15244;49.088;11.886;2023-11-19T17:09:28;1.58;;;0.68;;
27424;SDS011;15244;49.088;11.886;2023-11-19T17:14:30;1.90;;;0.85;;
27424;SDS011;15244;49.088;11.886;2023-11-19T17:19:34;0.70;;;0.70;;
27424;SDS011;15244;49.088;11.886;2023-11-19T17:24:36;1.05;;;0.75;;
27424;SDS011;15244;49.088;11.886;2023-11-19T17:29:38;0.80;;;0.70;;
27424;SDS011;15244;49.088;11.886;2023-11-19T17:34:42;0.50;;;0.50;;
27424;SDS011;15244;49.088;11.886;2023-11-19T17:39:44;0.95;;;0.65;;
27424;SDS011;15244;49.088;11.886;2023-11-19T17:44:46;2.33;;;0.60;;
27424;SDS011;15244;49.088;11.886;2023-11-19T17:49:48;1.65;;;0.77;;
27424;SDS011;15244;49.088;11.886;2023-11-19T17:54:52;1.33;;;0.50;;
27424;SDS011;15244;49.088;11.886;2023-11-19T17:59:54;0.57;;;0.40;;
27424;SDS011;15244;49.088;11.886;2023-11-19T18:04:59;3.25;;;0.70;;
27424;SDS011;15244;49.088;11.886;2023-11-19T18:10:01;1.38;;;0.90;;
27424;SDS011;15244;49.088;11.886;2023-11-19T18:15:05;0.88;;;0.60;;
27424;SDS011;15244;49.088;11.886;2023-11-19T18:20:11;3.00;;;0.68;;
27424;SDS011;15244;49.088;11.886;2023-11-19T18:25:15;1.52;;;0.63;;
27424;SDS011;15244;49.088;11.886;2023-11-19T18:30:19;0.40;;;0.40;;
27424;SDS011;15244;49.088;11.886;2023-11-19T18:35:20;1.42;;;0.50;;
27424;SDS011;15244;49.088;11.886;2023-11-19T18:40:25;1.95;;;0.80;;
27424;SDS011;15244;49.088;11.886;2023-11-19T18:45:29;1.00;;;0.80;;
27424;SDS011;15244;49.088;11.886;2023-11-19T18:50:33;1.33;;;1.00;;
27424;SDS011;15244;49.088;11.886;2023-11-19T18:55:52;1.58;;;0.80;;
27424;SDS011;15244;49.088;11.886;2023-11-19T19:00:54;1.65;;;0.75;;
27424;SDS011;15244;49.088;11.886;2023-11-19T19:05:56;1.00;;;0.73;;
27424;SDS011;15244;49.088;11.886;2023-11-19T19:10:58;0.52;;;0.52;;
27424;SDS011;15244;49.088;11.886;2023-11-19T19:16:04;1.00;;;0.85;;
27424;SDS011;15244;49.088;11.886;2023-11-19T19:21:06;0.73;;;0.60;;
27424;SDS011;15244;49.088;11.886;2023-11-19T19:26:08;0.88;;;0.70;;
27424;SDS011;15244;49.088;11.886;2023-11-19T19:31:10;2.38;;;1.00;;
27424;SDS011;15244;49.088;11.886;2023-11-19T19:36:18;1.08;;;0.80;;
27424;SDS011;15244;49.088;11.886;2023-11-19T19:41:22;2.35;;;0.80;;
27424;SDS011;15244;49.088;11.886;2023-11-19T19:46:30;1.20;;;0.50;;
27424;SDS011;15244;49.088;11.886;2023-11-19T19:51:32;1.73;;;0.50;;
27424;SDS011;15244;49.088;11.886;2023-11-19T19:56:36;1.25;;;0.70;;
27424;SDS011;15244;49.088;11.886;2023-11-19T20:01:37;2.42;;;0.60;;
27424;SDS011;15244;49.088;11.886;2023-11-19T20:06:39;1.20;;;0.40;;
27424;SDS011;15244;49.088;11.886;2023-11-19T20:11:41;2.30;;;0.70;;
27424;SDS011;15244;49.088;11.886;2023-11-19T20:16:48;1.48;;;0.90;;
27424;SDS011;15244;49.088;11.886;2023-11-19T20:22:11;1.05;;;0.63;;
27424;SDS011;15244;49.088;11.886;2023-11-19T20:27:13;0.57;;;0.55;;
27424;SDS011;15244;49.088;11.886;2023-11-19T20:32:17;2.38;;;0.60;;
27424;SDS011;15244;49.088;11.886;2023-11-19T20:37:19;1.25;;;0.70;;
27424;SDS011;15244;49.088;11.886;2023-11-19T20:42:21;1.33;;;0.82;;
27424;SDS011;15244;49.088;11.886;2023-11-19T20:47:22;2.33;;;1.00;;
27424;SDS011;15244;49.088;11.886;2023-11-19T20:52:26;1.75;;;1.33;;
27424;SDS011;15244;49.088;11.886;2023-11-19T20:57:28;10.75;;;4.22;;
27424;SDS011;15244;49.088;11.886;2023-11-19T21:02:30;7.65;;;4.18;;
27424;SDS011;15244;49.088;11.886;2023-11-19T21:07:33;1.73;;;1.58;;
27424;SDS011;15244;49.088;11.886;2023-11-19T21:12:34;2.80;;;1.60;;
27424;SDS011;15244;49.088;11.886;2023-11-19T21:17:36;1.67;;;1.30;;
27424;SDS011;15244;49.088;11.886;2023-11-19T21:22:38;4.30;;;3.33;;
27424;SDS011;15244;49.088;11.886;2023-11-19T21:27:39;2.95;;;2.75;;
27424;SDS011;15244;49.088;11.886;2023-11-19T21:32:41;1.63;;;1.00;;
27424;SDS011;15244;49.088;11.886;2023-11-19T21:37:43;1.40;;;1.30;;
27424;SDS011;15244;49.088;11.886;2023-11-19T21:42:44;5.80;;;2.03;;
27424;SDS011;15244;49.088;11.886;2023-11-19T21:47:46;1.85;;;1.40;;
27424;SDS011;15244;49.088;11.886;2023-11-19T21:52:47;2.67;;;1.30;;
27424;SDS011;15244;49.088;11.886;2023-11-19T21:57:51;1.63;;;1.00;;
27424;SDS011;15244;49.088;11.886;2023-11-19T22:02:53;1.52;;;1.20;;
27424;SDS011;15244;49.088;11.886;2023-11-19T22:07:55;2.42;;;1.00;;
27424;SDS011;15244;49.088;11.886;2023-11-19T22:13:16;1.17;;;0.40;;
27424;SDS011;15244;49.088;11.886;2023-11-19T22:18:18;1.80;;;1.10;;
27424;SDS011;15244;49.088;11.886;2023-11-19T22:23:19;1.40;;;0.98;;
27424;SDS011;15244;49.088;11.886;2023-11-19T22:28:23;2.47;;;1.10;;
27424;SDS011;15244;49.088;11.886;2023-11-19T22:33:27;4.32;;;1.02;;
27424;SDS011;15244;49.088;11.886;2023-11-19T22:38:29;5.00;;;1.00;;
27424;SDS011;15244;49.088;11.886;2023-11-19T22:43:31;2.90;;;0.98;;
27424;SDS011;15244;49.088;11.886;2023-11-19T22:48:33;4.18;;;1.38;;
27424;SDS011;15244;49.088;11.886;2023-11-19T22:53:34;2.58;;;1.40;;
27424;SDS011;15244;49.088;11.886;2023-11-19T22:58:36;7.28;;;2.63;;
27424;SDS011;15244;49.088;11.886;2023-11-19T23:03:40;4.20;;;1.77;;
27424;SDS011;15244;49.088;11.886;2023-11-19T23:08:43;5.68;;;3.40;;
27424;SDS011;15244;49.088;11.886;2023-11-19T23:13:45;4.35;;;2.88;;
27424;SDS011;15244;49.088;11.886;2023-11-19T23:18:47;7.18;;;2.88;;
27424;SDS011;15244;49.088;11.886;2023-11-19T23:23:48;6.82;;;2.75;;
27424;SDS011;15244;49.088;11.886;2023-11-19T23:28:50;3.15;;;1.15;;
27424;SDS011;15244;49.088;11.886;2023-11-19T23:34:03;3.50;;;1.38;;
27424;SDS011;15244;49.088;11.886;2023-11-19T23:39:04;11.18;;;2.55;;
27424;SDS011;15244;49.088;11.886;2023-11-19T23:44:08;6.25;;;1.45;;
27424;SDS011;15244;49.088;11.886;2023-11-19T23:49:11;6.88;;;1.85;;
27424;SDS011;15244;49.088;11.886;2023-11-19T23:54:13;5.03;;;1.40;;
27424;SDS011;15244;49.088;11.886;2023-11-19T23:59:15;5.00;;;1.92;;
